createdAt,value
2022-08-05T00:02:29.628Z,101410.0
2022-08-05T00:08:00.426Z,101410.0
2022-08-05T00:12:29.279Z,101400.0
2022-08-05T00:17:29.692Z,101390.0
2022-08-05T00:22:29.273Z,101400.0
2022-08-05T00:27:36.527Z,101390.0
2022-08-05T00:32:29.279Z,101390.0
2022-08-05T00:37:35.876Z,101380.0
2022-08-05T00:42:31.622Z,101400.0
2022-08-05T00:47:53.193Z,101400.0
2022-08-05T00:52:29.290Z,101380.0
2022-08-05T00:57:31.643Z,101390.0
2022-08-05T01:02:29.302Z,101380.0
2022-08-05T01:07:31.595Z,101390.0
2022-08-05T01:12:29.784Z,101370.0
2022-08-05T01:17:29.297Z,101370.0
2022-08-05T01:22:29.302Z,101370.0
2022-08-05T01:27:29.317Z,101390.0
2022-08-05T01:32:29.300Z,101410.0
2022-08-05T01:37:29.543Z,101420.0
2022-08-05T01:42:29.304Z,101440.0
2022-08-05T01:47:38.808Z,101450.0
2022-08-05T01:52:29.301Z,101450.0
2022-08-05T01:58:29.559Z,101460.0
2022-08-05T02:02:29.396Z,101440.0
2022-08-05T02:07:30.368Z,101450.0
2022-08-05T02:12:29.318Z,101470.0
2022-08-05T02:18:28.106Z,101470.0
2022-08-05T02:22:29.321Z,101440.0
2022-08-05T02:27:30.393Z,101430.0
2022-08-05T02:32:31.872Z,101410.0
2022-08-05T02:37:29.334Z,101420.0
2022-08-05T02:42:34.326Z,101440.0
2022-08-05T02:47:58.566Z,101450.0
2022-08-05T02:52:30.868Z,101430.0
2022-08-05T02:58:10.338Z,101440.0
2022-08-05T03:02:29.330Z,101460.0
2022-08-05T03:08:01.111Z,101450.0
2022-08-05T03:12:29.332Z,101430.0
2022-08-05T03:17:29.334Z,101400.0
2022-08-05T03:22:32.338Z,101390.0
2022-08-05T03:27:29.530Z,101400.0
2022-08-05T03:32:30.866Z,101400.0
2022-08-05T03:37:29.350Z,101420.0
2022-08-05T03:42:31.984Z,101420.0
2022-08-05T03:47:30.501Z,101420.0
2022-08-05T03:52:36.837Z,101420.0
2022-08-05T03:57:41.484Z,101430.0
2022-08-05T04:02:38.956Z,101440.0
2022-08-05T04:07:29.353Z,101430.0
2022-08-05T04:12:29.367Z,101440.0
2022-08-05T04:17:55.757Z,101450.0
2022-08-05T04:22:29.375Z,101430.0
2022-08-05T04:27:41.525Z,101430.0
2022-08-05T04:32:31.189Z,101440.0
2022-08-05T04:38:00.996Z,101460.0
2022-08-05T04:42:29.369Z,101470.0
2022-08-05T04:47:29.368Z,101480.0
2022-08-05T04:52:29.372Z,101460.0
2022-08-05T04:57:29.650Z,101450.0
2022-08-05T05:02:36.082Z,101480.0
2022-08-05T05:07:32.110Z,101470.0
2022-08-05T05:12:29.372Z,101460.0
2022-08-05T05:17:56.433Z,101470.0
2022-08-05T05:22:29.372Z,101460.0
2022-08-05T05:27:41.361Z,101450.0
2022-08-05T05:32:29.548Z,101450.0
2022-08-05T05:37:37.469Z,101460.0
2022-08-05T05:42:29.393Z,101470.0
2022-08-05T05:47:30.628Z,101480.0
2022-08-05T05:52:33.051Z,101480.0
2022-08-05T05:57:52.273Z,101470.0
2022-08-05T06:02:37.685Z,101480.0
2022-08-05T06:07:41.502Z,101470.0
2022-08-05T06:12:29.388Z,101490.0
2022-08-05T06:17:31.014Z,101500.0
2022-08-05T06:22:29.401Z,101490.0
2022-08-05T06:28:11.369Z,101500.0
2022-08-05T06:32:29.470Z,101500.0
2022-08-05T06:37:56.251Z,101520.0
2022-08-05T06:42:29.412Z,101510.0
2022-08-05T06:48:11.530Z,101520.0
2022-08-05T06:52:37.204Z,101510.0
2022-08-05T06:58:03.208Z,101520.0
2022-08-05T07:07:43.135Z,101530.0
2022-08-05T07:12:29.420Z,101540.0
2022-08-05T07:18:01.239Z,101540.0
2022-08-05T07:22:30.350Z,101540.0
2022-08-05T07:27:58.271Z,101560.0
2022-08-05T07:32:29.429Z,101560.0
2022-08-05T07:37:37.643Z,101560.0
2022-08-05T07:42:33.699Z,101570.0
2022-08-05T07:47:41.978Z,101560.0
2022-08-05T07:52:29.439Z,101570.0
2022-08-05T07:57:51.187Z,101570.0
2022-08-05T08:02:31.303Z,101570.0
2022-08-05T08:07:29.443Z,101580.0
2022-08-05T08:12:48.652Z,101590.0
2022-08-05T08:17:29.446Z,101590.0
2022-08-05T08:22:29.451Z,101590.0
2022-08-05T08:27:40.413Z,101600.0
2022-08-05T08:32:29.463Z,101610.0
2022-08-05T08:37:29.460Z,101620.0
2022-08-05T08:42:34.150Z,101620.0
2022-08-05T08:48:07.079Z,101630.0
2022-08-05T08:52:29.890Z,101640.0
2022-08-05T08:57:48.206Z,101640.0
2022-08-05T09:02:29.470Z,101650.0
2022-08-05T09:07:40.030Z,101650.0
2022-08-05T09:12:29.524Z,101660.0
2022-08-05T09:17:40.727Z,101660.0
2022-08-05T09:22:31.893Z,101660.0
2022-08-05T09:28:05.541Z,101670.0
2022-08-05T09:32:42.299Z,101680.0
2022-08-05T09:38:12.829Z,101680.0
2022-08-05T09:42:29.940Z,101680.0
2022-08-05T09:47:36.450Z,101680.0
2022-08-05T09:52:29.500Z,101700.0
2022-08-05T09:57:29.509Z,101700.0
2022-08-05T10:02:29.522Z,101700.0
2022-08-05T10:08:10.449Z,101700.0
2022-08-05T10:12:33.422Z,101720.0
2022-08-05T10:17:39.736Z,101710.0
2022-08-05T10:22:34.834Z,101710.0
2022-08-05T10:28:09.760Z,101720.0
2022-08-05T10:33:01.410Z,101720.0
2022-08-05T10:37:40.124Z,101720.0
2022-08-05T10:42:33.498Z,101720.0
2022-08-05T10:47:31.270Z,101720.0
2022-08-05T10:52:29.546Z,101720.0
2022-08-05T10:57:32.070Z,101720.0
2022-08-05T11:02:37.434Z,101720.0
2022-08-05T11:07:33.290Z,101730.0
2022-08-05T11:12:29.552Z,101740.0
2022-08-05T11:18:00.385Z,101750.0
2022-08-05T11:22:29.546Z,101750.0
2022-08-05T11:27:29.556Z,101740.0
2022-08-05T11:32:29.550Z,101760.0
2022-08-05T11:38:29.747Z,101750.0
2022-08-05T11:42:29.548Z,101760.0
2022-08-05T11:47:48.876Z,101770.0
2022-08-05T11:52:31.206Z,101780.0
2022-08-05T11:57:30.610Z,101780.0
2022-08-05T12:02:31.342Z,101790.0
2022-08-05T12:08:08.645Z,101790.0
2022-08-05T12:12:29.561Z,101800.0
2022-08-05T12:18:11.050Z,101790.0
2022-08-05T12:22:29.567Z,101820.0
2022-08-05T12:27:32.488Z,101830.0
2022-08-05T12:32:29.569Z,101840.0
2022-08-05T12:37:30.116Z,101840.0
2022-08-05T12:42:29.571Z,101860.0
2022-08-05T12:47:30.583Z,101860.0
2022-08-05T12:52:32.329Z,101860.0
2022-08-05T12:57:29.583Z,101880.0
2022-08-05T13:02:30.521Z,101880.0
2022-08-05T13:07:57.349Z,101890.0
2022-08-05T13:12:29.597Z,101900.0
2022-08-05T13:17:31.906Z,101900.0
2022-08-05T13:22:36.361Z,101910.0
2022-08-05T13:27:37.727Z,101900.0
2022-08-05T13:32:35.115Z,101910.0
2022-08-05T13:37:34.963Z,101900.0
2022-08-05T13:42:29.616Z,101910.0
2022-08-05T13:47:34.606Z,101910.0
2022-08-05T13:52:29.621Z,101920.0
2022-08-05T13:57:50.592Z,101920.0
2022-08-05T14:02:29.806Z,101920.0
2022-08-05T14:08:00.645Z,101920.0
2022-08-05T14:12:32.321Z,101930.0
2022-08-05T14:17:29.918Z,101930.0
2022-08-05T14:22:30.373Z,101930.0
2022-08-05T14:27:29.620Z,101940.0
2022-08-05T14:32:29.824Z,101950.0
2022-08-05T14:37:45.558Z,101950.0
2022-08-05T14:42:29.651Z,101960.0
2022-08-05T14:48:05.474Z,101960.0
2022-08-05T14:52:51.548Z,101970.0
2022-08-05T14:57:53.872Z,101980.0
2022-08-05T15:02:29.876Z,101980.0
2022-08-05T15:08:05.328Z,101970.0
2022-08-05T15:12:51.279Z,101970.0
2022-08-05T15:17:45.861Z,101970.0
2022-08-05T15:22:29.636Z,101990.0
2022-08-05T15:27:32.081Z,101980.0
2022-08-05T15:32:29.645Z,101990.0
2022-08-05T15:38:34.952Z,101990.0
2022-08-05T15:42:50.438Z,101990.0
2022-08-05T15:47:29.644Z,101990.0
2022-08-05T15:52:54.450Z,102000.0
2022-08-05T15:57:33.068Z,101990.0
2022-08-05T16:02:29.934Z,101990.0
2022-08-05T16:07:29.837Z,101990.0
2022-08-05T16:12:29.652Z,102000.0
2022-08-05T16:17:29.655Z,102010.0
2022-08-05T16:22:34.368Z,102000.0
2022-08-05T16:27:32.059Z,102010.0
2022-08-05T16:32:29.925Z,102020.0
2022-08-05T16:38:16.174Z,102020.0
2022-08-05T16:42:30.177Z,102030.0
2022-08-05T16:47:40.903Z,102030.0
2022-08-05T16:52:32.581Z,102040.0
2022-08-05T16:57:52.947Z,102050.0
2022-08-05T17:02:29.675Z,102060.0
2022-08-05T17:07:39.147Z,102060.0
2022-08-05T17:12:50.910Z,102060.0
2022-08-05T17:18:02.080Z,102070.0
2022-08-05T17:22:30.028Z,102080.0
2022-08-05T17:27:33.788Z,102090.0
2022-08-05T17:32:30.053Z,102090.0
2022-08-05T17:37:41.782Z,102100.0
2022-08-05T17:42:31.962Z,102100.0
2022-08-05T17:47:29.685Z,102110.0
2022-08-05T17:52:29.692Z,102110.0
2022-08-05T17:57:29.690Z,102120.0
2022-08-05T18:02:29.693Z,102120.0
2022-08-05T18:07:40.865Z,102150.0
2022-08-05T18:12:29.692Z,102150.0
2022-08-05T18:18:01.597Z,102160.0
2022-08-05T18:22:46.141Z,102180.0
2022-08-05T18:27:29.723Z,102170.0
2022-08-05T18:32:29.778Z,102190.0
2022-08-05T18:37:33.983Z,102180.0
2022-08-05T18:42:29.810Z,102200.0
2022-08-05T18:47:29.698Z,102200.0
2022-08-05T18:52:32.701Z,102190.0
2022-08-05T18:57:49.909Z,102220.0
2022-08-05T19:02:29.867Z,102220.0
2022-08-05T19:07:29.913Z,102220.0
2022-08-05T19:12:29.698Z,102230.0
2022-08-05T19:17:33.786Z,102240.0
2022-08-05T19:22:30.046Z,102250.0
2022-08-05T19:27:30.418Z,102260.0
2022-08-05T19:32:29.703Z,102270.0
2022-08-05T19:37:47.304Z,102280.0
2022-08-05T19:42:35.855Z,102280.0
2022-08-05T19:47:29.706Z,102280.0
2022-08-05T19:52:31.411Z,102290.0
2022-08-05T19:57:48.889Z,102290.0
2022-08-05T20:02:29.730Z,102300.0
2022-08-05T20:07:46.744Z,102300.0
2022-08-05T20:12:29.709Z,102300.0
2022-08-05T20:17:29.709Z,102310.0
2022-08-05T20:22:29.853Z,102320.0
2022-08-05T20:27:41.855Z,102330.0
2022-08-05T20:32:29.717Z,102330.0
2022-08-05T20:38:05.328Z,102340.0
2022-08-05T20:42:29.722Z,102340.0
2022-08-05T20:47:32.088Z,102340.0
2022-08-05T20:52:29.723Z,102350.0
2022-08-05T20:57:43.618Z,102350.0
2022-08-05T21:02:29.724Z,102350.0
2022-08-05T21:07:50.418Z,102360.0
2022-08-05T21:12:29.723Z,102370.0
2022-08-05T21:17:29.745Z,102360.0
2022-08-05T21:22:30.210Z,102370.0
2022-08-05T21:27:38.598Z,102380.0
2022-08-05T21:32:29.994Z,102380.0
2022-08-05T21:37:29.732Z,102380.0
2022-08-05T21:42:41.186Z,102380.0
2022-08-05T21:47:56.192Z,102390.0
2022-08-05T21:52:30.398Z,102390.0
2022-08-05T21:57:31.218Z,102400.0
2022-08-05T22:02:29.742Z,102400.0
2022-08-05T22:07:39.391Z,102410.0
2022-08-05T22:12:29.746Z,102420.0
2022-08-05T22:17:29.741Z,102410.0
2022-08-05T22:22:31.175Z,102420.0
2022-08-05T22:28:08.793Z,102410.0
2022-08-05T22:32:29.751Z,102420.0
2022-08-05T22:37:58.141Z,102420.0
2022-08-05T22:42:29.969Z,102430.0
2022-08-05T22:47:30.662Z,102440.0
2022-08-05T22:52:32.351Z,102440.0
2022-08-05T22:57:34.258Z,102440.0
2022-08-05T23:02:30.221Z,102450.0
2022-08-05T23:07:30.336Z,102450.0
2022-08-05T23:12:29.754Z,102450.0
2022-08-05T23:17:34.284Z,102460.0
2022-08-05T23:22:29.769Z,102460.0
2022-08-05T23:27:31.499Z,102460.0
2022-08-05T23:32:29.757Z,102460.0
2022-08-05T23:37:34.181Z,102460.0
2022-08-05T23:42:29.930Z,102470.0
2022-08-05T23:47:33.687Z,102480.0
2022-08-05T23:52:30.787Z,102480.0
2022-08-05T23:57:29.765Z,102480.0
